Home > Products > Valid Products > TAF

000
FTUS41 KGYX 230520
TAFLEB
TAF
KLEB 230520Z 2306/2406 32009KT P6SM SCT100
     FM231300 31010G20KT P6SM SKC
     FM232200 27008KT P6SM SKC=



000
FTUS41 KGYX 230520
TAFCON
TAF
KCON 230520Z 2306/2406 31012KT P6SM SCT070 BKN100
     FM231300 31014G24KT P6SM SKC
     FM232300 27005KT P6SM SKC=



000
FTUS41 KGYX 230520
TAFAUG
TAF
KAUG 230520Z 2306/2406 31010G17KT P6SM BKN100
     FM231200 31015G26KT P6SM SKC
     FM240000 27006KT P6SM SKC=



000
FTUS41 KGYX 230520
TAFPSM
TAF
KPSM 230520Z 2306/2406 30010KT P6SM SCT070 BKN100
     FM231300 30014G24KT P6SM SKC
     FM240000 26007KT P6SM SKC=



000
FTUS41 KGYX 230520
TAFPWM
TAF
KPWM 230520Z 2306/2406 31010KT P6SM SCT070 BKN120
     FM231300 31015G25KT P6SM SKC
     FM240000 26005KT P6SM SKC=



000
FTUS41 KGYX 230157 AAA
TAFAUG
TAF AMD
KAUG 230157Z 2302/2324 32009KT P6SM SCT100
      TEMPO 2302/2304 BKN100
     FM230400 30008KT P6SM FEW120
     FM231200 30013G23KT P6SM SKC
     FM231600 30019G29KT P6SM SCT060=



000
FTUS41 KGYX 230135 AAA
TAFLEB
TAF AMD
KLEB 230135Z 2302/2324 32009KT P6SM SCT100
      TEMPO 2302/2304 BKN080
     FM230400 30007KT P6SM SCT120
     FM231300 30010G19KT P6SM SKC
     FM231600 30016G26KT P6SM SCT060=



000
FTUS41 KGYX 230134 AAA
TAFPSM
TAF AMD
KPSM 230134Z 2302/2324 30007KT P6SM SCT100
      TEMPO 2302/2304 BKN100
     FM230400 28007KT P6SM FEW120
     FM231300 30014G24KT P6SM SKC
     FM231600 29018G28KT P6SM FEW060=



000
FTUS41 KGYX 230134 AAA
TAFCON
TAF AMD
KCON 230134Z 2302/2324 32008KT P6SM SCT100
      TEMPO 2302/2304 BKN100
     FM230400 29008KT P6SM FEW120
     FM231300 31014G24KT P6SM SKC
     FM231600 30018G28KT P6SM SCT060=



000
FTUS41 KGYX 230132 AAA
TAFPWM
TAF AMD
KPWM 230132Z 2302/2324 33008KT P6SM SCT100
      TEMPO 2302/2304 BKN100
     FM230400 29010KT P6SM FEW120
     FM231300 31015G25KT P6SM SKC
     FM231600 30020G30KT P6SM FEW060=



000
FTUS41 KGYX 230132 AAA
TAFPWM
TAF AMD
KPWM 230132Z 2302/2324 33008KT P6SM SCT100
      TEMPO 2302/2304 BKN100
     FM230400 29010KT P6SM FEW120
     FM231300 31015G25KT P6SM SKC
     FM231600 30020G30KT P6SM FEW060=



000
FTUS41 KGYX 222323 CCA
TAFPWM
TAF COR
KPWM 222323Z 2300/2324 33012G20KT P6SM SCT100
      TEMPO 2300/2304 BKN100
     FM230400 29010KT P6SM FEW120
     FM231300 31015G25KT P6SM SKC
     FM231600 30020G30KT P6SM FEW060=



000
FTUS41 KGYX 222323 CCA
TAFPWM
TAF COR
KPWM 222323Z 2300/2324 33012G20KT P6SM SCT100
      TEMPO 2300/2304 BKN100
     FM230400 29010KT P6SM FEW120
     FM231300 31015G25KT P6SM SKC
     FM231600 30020G30KT P6SM FEW060=



000
FTUS41 KGYX 222322
TAFPSM
TAF
KPSM 222322Z 2300/2324 31015G25KT P6SM SCT100
      TEMPO 2300/2304 BKN100
     FM230400 28010KT P6SM FEW120
     FM231300 30014G24KT P6SM SKC
     FM231600 29018G28KT P6SM FEW060=



000
FTUS41 KGYX 222322
TAFCON
TAF
KCON 222322Z 2300/2324 30015G25KT P6SM SCT100
      TEMPO 2300/2304 BKN100
     FM230400 29010KT P6SM FEW120
     FM231300 31014G24KT P6SM SKC
     FM231600 30018G28KT P6SM SCT060=



000
FTUS41 KGYX 222322
TAFLEB
TAF
KLEB 222322Z 2300/2324 32012G21KT P6SM SCT100
      TEMPO 2300/2304 BKN090
     FM230400 30007KT P6SM SCT120
     FM231300 30010G19KT P6SM SKC
     FM231600 30016G26KT P6SM SCT060=



000
FTUS41 KGYX 222322
TAFAUG
TAF
KAUG 222322Z 2300/2324 31013G23KT P6SM SCT100
      TEMPO 2300/2304 BKN100
     FM230400 30008KT P6SM FEW120
     FM231200 30013G23KT P6SM SKC
     FM231600 30019G29KT P6SM SCT060=



000
FTUS41 KGYX 222322
TAFPSM
TAF
KPSM 222322Z 2300/2324 31015G25KT P6SM SCT100
      TEMPO 2300/2304 BKN100
     FM230400 28010KT P6SM FEW120
     FM231300 30014G24KT P6SM SKC
     FM231600 29018G28KT P6SM FEW060=



000
FTUS41 KGYX 222322
TAFLEB
TAF
KLEB 222322Z 2300/2324 32012G21KT P6SM SCT100
      TEMPO 2300/2304 BKN090
     FM230400 30007KT P6SM SCT120
     FM231300 30010G19KT P6SM SKC
     FM231600 30016G26KT P6SM SCT060=



000
FTUS41 KGYX 222322
TAFPWM
TAF
KPWM 222322Z 2300/2324 16012KT P6SM SCT100
      TEMPO 2300/2304 BKN100
     FM230400 29010KT P6SM FEW120
     FM231300 31015G25KT P6SM SKC
     FM231600 30020G30KT P6SM FEW060=



000
FTUS41 KGYX 222322
TAFAUG
TAF
KAUG 222322Z 2300/2324 31013G23KT P6SM SCT100
      TEMPO 2300/2304 BKN100
     FM230400 30008KT P6SM FEW120
     FM231200 30013G23KT P6SM SKC
     FM231600 30019G29KT P6SM SCT060=



000
FTUS41 KGYX 222322
TAFCON
TAF
KCON 222322Z 2300/2324 30015G25KT P6SM SCT100
      TEMPO 2300/2304 BKN100
     FM230400 29010KT P6SM FEW120
     FM231300 31014G24KT P6SM SKC
     FM231600 30018G28KT P6SM SCT060=



000
FTUS41 KGYX 222322
TAFPWM
TAF
KPWM 222322Z 2300/2324 16012KT P6SM SCT100
      TEMPO 2300/2304 BKN100
     FM230400 29010KT P6SM FEW120
     FM231300 31015G25KT P6SM SKC
     FM231600 30020G30KT P6SM FEW060=



000
FTUS41 KGYX 221913 AAA
TAFAUG
TAF AMD
KAUG 221913Z 2219/2318 31010G18KT P6SM BKN060
      TEMPO 2219/2220 2SM -SHRA BKN050 OVC080
     FM230000 31010G20KT P6SM SKC=



000
FTUS41 KGYX 221722
TAFPSM
TAF
KPSM 221722Z 2218/2318 30010G20KT P6SM SCT080
     FM230000 30010KT P6SM SKC
     FM231300 30014G24KT P6SM SKC=



000
FTUS41 KGYX 221722
TAFPWM
TAF
KPWM 221722Z 2218/2318 16012KT P6SM BKN080
     FM222000 30012G20KT P6SM SCT080
     FM230000 29010KT P6SM SKC
     FM231300 31016G25KT P6SM SKC=



000
FTUS41 KGYX 221722
TAFLEB
TAF
KLEB 221722Z 2218/2318 32012G21KT P6SM SCT070
     FM230000 30007KT P6SM SKC
     FM231300 32010G19KT P6SM SKC=



000
FTUS41 KGYX 221722
TAFAUG
TAF
KAUG 221722Z 2218/2318 22009KT P6SM SCT080
     FM221830 28010G18KT P6SM SCT120
      TEMPO 2219/2221 6SM -SHRA BKN050 OVC080
     FM230000 31010G20KT P6SM SKC=



000
FTUS41 KGYX 221722
TAFCON
TAF
KCON 221722Z 2218/2318 30015G25KT P6SM SCT080
     FM230000 31010KT P6SM SKC
     FM231200 31014G24KT P6SM SKC=



000
FTUS41 KGYX 221722
TAFLEB
TAF
KLEB 221722Z 2218/2318 32012G21KT P6SM SCT070
     FM230000 30007KT P6SM SKC
     FM231300 32010G19KT P6SM SKC=



000
FTUS41 KGYX 221722
TAFPSM
TAF
KPSM 221722Z 2218/2318 30010G20KT P6SM SCT080
     FM230000 30010KT P6SM SKC
     FM231300 30014G24KT P6SM SKC=



000
FTUS41 KGYX 221722
TAFCON
TAF
KCON 221722Z 2218/2318 30015G25KT P6SM SCT080
     FM230000 31010KT P6SM SKC
     FM231200 31014G24KT P6SM SKC=



000
FTUS41 KGYX 221722
TAFPWM
TAF
KPWM 221722Z 2218/2318 16012KT P6SM BKN080
     FM222000 30012G20KT P6SM SCT080
     FM230000 29010KT P6SM SKC
     FM231300 31016G25KT P6SM SKC=



000
FTUS41 KGYX 221722
TAFAUG
TAF
KAUG 221722Z 2218/2318 22009KT P6SM SCT080
     FM221830 28010G18KT P6SM SCT120
      TEMPO 2219/2221 6SM -SHRA BKN050 OVC080
     FM230000 31010G20KT P6SM SKC=



000
FTUS41 KGYX 221120
TAFAUG
TAF
KAUG 221120Z 2212/2312 17004KT P6SM OVC120
     FM221300 22007KT P6SM SCT080 SCT100
     FM221700 28010G18KT P6SM SCT120
      TEMPO 2218/2221 6SM -SHRA
     FM230000 31010KT P6SM SKC=



000
FTUS41 KGYX 221120
TAFCON
TAF
KCON 221120Z 2212/2312 18004KT P6SM BKN100
     FM221500 29008KT P6SM SCT120
     FM221800 30015G25KT P6SM SCT080
     FM230000 31010KT P6SM SKC=



000
FTUS41 KGYX 221120
TAFPWM
TAF
KPWM 221120Z 2212/2312 19003KT P6SM OVC100
     FM221300 25010KT P6SM BKN080 BKN120
     FM222000 30012G20KT P6SM SCT080
     FM230000 29010KT P6SM SKC=



000
FTUS41 KGYX 221120
TAFAUG
TAF
KAUG 221120Z 2212/2312 17004KT P6SM OVC120
     FM221300 22007KT P6SM SCT080 SCT100
     FM221700 28010G18KT P6SM SCT120
      TEMPO 2218/2221 6SM -SHRA BKN050 OVC080
     FM230000 31010KT P6SM SKC=



000
FTUS41 KGYX 221120
TAFAUG
TAF
KAUG 221120Z 2212/2312 17004KT P6SM OVC120
     FM221300 22007KT P6SM SCT080 SCT100
     FM221700 28010G18KT P6SM SCT120
      TEMPO 2218/2221 6SM -SHRA BKN050 OVC080
     FM230000 31010KT P6SM SKC=



000
FTUS41 KGYX 221120
TAFLEB
TAF
KLEB 221120Z 2212/2312 VRB03KT P6SM OVC100
     FM221500 29010KT P6SM SCT100
     FM221700 31015G25KT P6SM SCT120
     FM230000 30007KT P6SM SKC=



000
FTUS41 KGYX 221120
TAFPSM
TAF
KPSM 221120Z 2212/2312 20005KT P6SM OVC120
     FM221300 26008KT P6SM SCT080
     FM222000 28013G20KT P6SM SCT080
     FM230000 30010KT P6SM SKC=



000
FTUS41 KGYX 221120
TAFLEB
TAF
KLEB 221120Z 2212/2312 VRB03KT P6SM OVC100
     FM221500 29010KT P6SM SCT100
     FM221700 31015G25KT P6SM SCT120
     FM230000 30007KT P6SM SKC=



000
FTUS41 KGYX 221120
TAFAUG
TAF
KAUG 221120Z 2212/2312 17004KT P6SM OVC120
     FM221300 22007KT P6SM SCT080 SCT100
     FM221700 28010G18KT P6SM SCT120
      TEMPO 2218/2221 6SM -SHRA
     FM230000 31010KT P6SM SKC=



000
FTUS41 KGYX 221120
TAFCON
TAF
KCON 221120Z 2212/2312 18004KT P6SM BKN100
     FM221500 29008KT P6SM SCT120
     FM221800 30015G25KT P6SM SCT080
     FM230000 31010KT P6SM SKC=



000
FTUS41 KGYX 221120
TAFPSM
TAF
KPSM 221120Z 2212/2312 20005KT P6SM OVC120
     FM221300 26008KT P6SM SCT080
     FM222000 28013G20KT P6SM SCT080
     FM230000 30010KT P6SM SKC=



000
FTUS41 KGYX 221120
TAFPWM
TAF
KPWM 221120Z 2212/2312 19003KT P6SM OVC100
     FM221300 25010KT P6SM BKN080 BKN120
     FM222000 30012G20KT P6SM SCT080
     FM230000 29010KT P6SM SKC=



000
FTUS41 KGYX 220858 AAA
TAFPWM
TAF AMD
KPWM 220858Z 2209/2306 19003KT P6SM OVC100
     FM221300 25010KT P6SM BKN080 BKN120
     FM222000 30012G20KT P6SM SCT080
     FM230000 29010KT P6SM SKC=



000
FTUS41 KGYX 220858 AAA
TAFPSM
TAF AMD
KPSM 220858Z 2209/2306 20005KT P6SM OVC120
     FM221300 26008KT P6SM SCT080
     FM222000 28013G20KT P6SM SCT080
     FM230000 30010KT P6SM SKC=



000
FTUS41 KGYX 220858 AAA
TAFAUG
TAF AMD
KAUG 220858Z 2209/2306 17004KT P6SM OVC120
     FM221300 22007KT P6SM SCT080 SCT100
     FM221700 28010G18KT P6SM SCT120
     FM230000 31010KT P6SM SKC=



000
FTUS41 KGYX 220858 AAA
TAFCON
TAF AMD
KCON 220858Z 2209/2306 18004KT P6SM BKN100
     FM221500 29008KT P6SM SCT120
     FM221800 30015G25KT P6SM SCT080
     FM230000 31010KT P6SM SKC=



000
FTUS41 KGYX 220858 AAA
TAFLEB
TAF AMD
KLEB 220858Z 2209/2306 VRB03KT P6SM OVC100
     FM221500 29010KT P6SM SCT100
     FM221700 31015G25KT P6SM SCT120
     FM230000 30007KT P6SM SKC=



000
FTUS41 KGYX 220520
TAFPSM
TAF
KPSM 220520Z 2206/2306 20005KT P6SM OVC120
     FM221300 26008KT P6SM SCT080
     FM222000 28013G20KT P6SM SCT080
     FM230000 30010KT P6SM SKC=



000
FTUS41 KGYX 220520
TAFPWM
TAF
KPWM 220520Z 2206/2306 19003KT P6SM OVC100
     FM221300 25010KT P6SM BKN080 BKN120
     FM222000 30012G20KT P6SM SCT080
     FM230000 29010KT P6SM SKC=



000
FTUS41 KGYX 220520
TAFLEB
TAF
KLEB 220520Z 2206/2306 VRB03KT P6SM OVC100
     FM221500 29010KT P6SM SCT100
     FM221700 31015G25KT P6SM SCT120
     FM230000 30007KT P6SM SKC=



000
FTUS41 KGYX 220520
TAFPSM
TAF
KPSM 220520Z 2206/2306 20005KT P6SM OVC120
     FM221300 26008KT P6SM SCT080
     FM222000 28013G20KT P6SM SCT080
     FM230000 30010KT P6SM SKC=



000
FTUS41 KGYX 220520
TAFPWM
TAF
KPWM 220520Z 2206/2306 19003KT P6SM OVC100
     FM221300 25010KT P6SM BKN080 BKN120
     FM222000 30012G20KT P6SM SCT080
     FM230000 29010KT P6SM SKC=



000
FTUS41 KGYX 220520
TAFLEB
TAF
KLEB 220520Z 2206/2306 VRB03KT P6SM OVC100
     FM221500 29010KT P6SM SCT100
     FM221700 31015G25KT P6SM SCT120
     FM230000 30007KT P6SM SKC=



000
FTUS41 KGYX 220520
TAFCON
TAF
KCON 220520Z 2206/2306 18004KT P6SM BKN100
     FM221500 29008KT P6SM SCT120
     FM221800 30015G25KT P6SM SCT080
     FM230000 31010KT P6SM SKC=



000
FTUS41 KGYX 220520
TAFCON
TAF
KCON 220520Z 2206/2306 18004KT P6SM BKN100
     FM221500 29008KT P6SM SCT120
     FM221800 30015G25KT P6SM SCT080
     FM230000 31010KT P6SM SKC=



000
FTUS41 KGYX 220520
TAFAUG
TAF
KAUG 220520Z 2206/2306 17004KT P6SM OVC120
     FM221300 22007KT P6SM SCT080 SCT100
     FM221700 28010G18KT P6SM SCT120
     FM230000 31010KT P6SM SKC=



000
FTUS41 KGYX 220520
TAFAUG
TAF
KAUG 220520Z 2206/2306 17004KT P6SM OVC120
     FM221300 22007KT P6SM SCT080 SCT100
     FM221700 28010G18KT P6SM SCT120
     FM230000 31010KT P6SM SKC=



000
FTUS41 KGYX 220122 AAA
TAFPSM
TAF AMD
KPSM 220122Z 2201/2224 15007KT P6SM SCT080 BKN150
     FM220400 21005KT P6SM SCT080 BKN100
     FM221300 26008KT P6SM SCT080
     FM222000 28013G20KT P6SM SCT080=



000
FTUS41 KGYX 212320
TAFPWM
TAF
KPWM 212320Z 2200/2224 19009KT P6SM SCT100
     FM220800 VRB03KT P6SM BKN120
     FM221300 25010KT P6SM BKN080 BKN120
     FM222000 30012G20KT P6SM SCT080=



000
FTUS41 KGYX 212320
TAFPWM
TAF
KPWM 212320Z 2200/2224 19009KT P6SM SCT100
     FM220800 VRB03KT P6SM BKN120
     FM221300 25010KT P6SM BKN080 BKN120
     FM222000 30012G20KT P6SM SCT080=



000
FTUS41 KGYX 212320
TAFAUG
TAF
KAUG 212320Z 2200/2224 18007KT P6SM SCT100
     FM220600 VRB03KT P6SM SCT060 BKN080
     FM221300 22005KT P6SM SCT080 SCT100
     FM221700 28008KT P6SM SCT120=



000
FTUS41 KGYX 212320
TAFPSM
TAF
KPSM 212320Z 2200/2224 16010G20KT P6SM SCT080 SCT100
     FM220400 21005KT P6SM SCT080 BKN100
     FM221300 26008KT P6SM SCT080
     FM222000 28013G20KT P6SM SCT080=



000
FTUS41 KGYX 212320
TAFLEB
TAF
KLEB 212320Z 2200/2224 23005KT P6SM SCT080
     FM220300 VRB03KT P6SM SCT100 BKN150
     FM220500 00000KT P6SM SCT060 BKN080
     FM221500 29010KT P6SM SCT100
     FM221700 31015G25KT P6SM SCT120=



000
FTUS41 KGYX 212320
TAFCON
TAF
KCON 212320Z 2200/2224 20008KT P6SM SCT100
     FM220500 VRB03KT P6SM SCT080 BKN120
     FM221500 29008KT P6SM SCT120
     FM221800 30015G25KT P6SM SCT080=



000
FTUS41 KGYX 212320
TAFAUG
TAF
KAUG 212320Z 2200/2224 18007KT P6SM SCT100
     FM220600 VRB03KT P6SM SCT060 BKN080
     FM221300 22005KT P6SM SCT080 SCT100
     FM221700 28008KT P6SM SCT120=



000
FTUS41 KGYX 212320
TAFCON
TAF
KCON 212320Z 2200/2224 20008KT P6SM SCT100
     FM220500 VRB03KT P6SM SCT080 BKN120
     FM221500 29008KT P6SM SCT120
     FM221800 30015G25KT P6SM SCT080=



000
FTUS41 KGYX 212320
TAFPSM
TAF
KPSM 212320Z 2200/2224 16010G20KT P6SM SCT080 SCT100
     FM220400 21005KT P6SM SCT080 BKN100
     FM221300 26008KT P6SM SCT080
     FM222000 28013G20KT P6SM SCT080=



000
FTUS41 KGYX 212320
TAFLEB
TAF
KLEB 212320Z 2200/2224 23005KT P6SM SCT080
     FM220300 VRB03KT P6SM SCT100 BKN150
     FM220500 00000KT P6SM SCT060 BKN080
     FM221500 29010KT P6SM SCT100
     FM221700 31015G25KT P6SM SCT120=



000
FTUS41 KGYX 212013 AAA
TAFLEB
TAF AMD
KLEB 212013Z 2120/2218 21010KT P6SM SCT080
     FM220300 VRB03KT P6SM BKN120
     FM221500 27008KT P6SM SCT120=



000
FTUS41 KGYX 212013 AAA
TAFLEB
TAF AMD
KLEB 212013Z 2120/2218 21010KT P6SM SCT080
     FM220300 VRB03KT P6SM BKN120
     FM221500 27008KT P6SM SCT120=



000
FTUS41 KGYX 212012 AAA
TAFCON
TAF AMD
KCON 212012Z 2120/2218 20008KT P6SM SCT080
     FM220300 VRB03KT P6SM BKN120
     FM221500 29008KT P6SM SCT120=



000
FTUS41 KGYX 211726
TAFPWM
TAF
KPWM 211726Z 2118/2218 17015G27KT P6SM SCT080
     FM220100 22005KT P6SM BKN120=



000
FTUS41 KGYX 211726
TAFPSM
TAF
KPSM 211726Z 2118/2218 16010G20KT P6SM SCT080
     FM220300 21005KT P6SM BKN120
     FM221500 26008KT P6SM SCT120=



000
FTUS41 KGYX 211726
TAFCON
TAF
KCON 211726Z 2118/2218 20010G20KT P6SM SCT080
     FM220300 VRB03KT P6SM BKN120
     FM221500 29008KT P6SM SCT120=



000
FTUS41 KGYX 211726
TAFLEB
TAF
KLEB 211726Z 2118/2218 18010G17KT P6SM SCT080
     FM220300 VRB03KT P6SM BKN120
     FM221500 27008KT P6SM SCT120=



000
FTUS41 KGYX 211726
TAFAUG
TAF
KAUG 211726Z 2118/2218 22010KT P6SM SCT080
     FM211900 19010G20KT P6SM SCT080
     FM220300 21005KT P6SM BKN120=



000
FTUS41 KGYX 211714 AAB
TAFPWM
TAF AMD
KPWM 211714Z 2117/2212 17015G27KT P6SM SCT080
     FM220100 22003KT P6SM BKN120=



000
FTUS41 KGYX 211610 AAA
TAFPWM
TAF AMD
KPWM 211610Z 2116/2212 17013G20KT P6SM SCT080
     FM220100 22003KT P6SM BKN120=



000
FTUS41 KGYX 211610 AAA
TAFPWM
TAF AMD
KPWM 211610Z 2116/2212 17013G20KT P6SM SCT080
     FM220100 22003KT P6SM BKN120=



000
FTUS41 KGYX 211120
TAFPSM
TAF
KPSM 211120Z 2112/2212 24005KT P6SM BKN250
     FM211800 20010G20KT P6SM SCT070 SCT250
     FM220300 21005KT P6SM BKN120=



000
FTUS41 KGYX 211120
TAFCON
TAF
KCON 211120Z 2112/2212 24005KT P6SM BKN250
     FM211800 20010G20KT P6SM SCT070 SCT250
     FM220300 VRB03KT P6SM BKN120=



000
FTUS41 KGYX 211120
TAFAUG
TAF
KAUG 211120Z 2112/2212 25005KT P6SM SCT120 BKN250
     FM211800 20010G20KT P6SM SCT070 SCT250
     FM220300 18003KT P6SM BKN120=



000
FTUS41 KGYX 211120
TAFCON
TAF
KCON 211120Z 2112/2212 24005KT P6SM BKN250
     FM211800 20010G20KT P6SM SCT070 SCT250
     FM220300 VRB03KT P6SM BKN120=



000
FTUS41 KGYX 211120
TAFPSM
TAF
KPSM 211120Z 2112/2212 24005KT P6SM BKN250
     FM211800 20010G20KT P6SM SCT070 SCT250
     FM220300 21005KT P6SM BKN120=



000
FTUS41 KGYX 211120
TAFLEB
TAF
KLEB 211120Z 2112/2212 VRB03KT P6SM BKN250
     FM211600 22008KT P6SM SCT120 BKN250
     FM220300 VRB03KT P6SM BKN120=



000
FTUS41 KGYX 211120
TAFAUG
TAF
KAUG 211120Z 2112/2212 25005KT P6SM SCT120 BKN250
     FM211800 20010G20KT P6SM SCT070 SCT250
     FM220300 18003KT P6SM BKN120=



000
FTUS41 KGYX 211120
TAFPWM
TAF
KPWM 211120Z 2112/2212 23003KT P6SM SCT250
     FM211500 22008KT P6SM SCT120 BKN250
     FM211900 20010G20KT P6SM SCT070 SCT250
     FM220100 22003KT P6SM BKN120=



000
FTUS41 KGYX 211120
TAFPWM
TAF
KPWM 211120Z 2112/2212 23003KT P6SM SCT250
     FM211500 22008KT P6SM SCT120 BKN250
     FM211900 20010G20KT P6SM SCT070 SCT250
     FM220100 22003KT P6SM BKN120=



000
FTUS41 KGYX 211120
TAFLEB
TAF
KLEB 211120Z 2112/2212 VRB03KT P6SM BKN250
     FM211600 22008KT P6SM SCT120 BKN250
     FM220300 VRB03KT P6SM BKN120=



000
FTUS41 KGYX 210900 AAA
TAFPSM
TAF AMD
KPSM 210900Z 2109/2206 27005KT P6SM SCT250
     FM211400 24005KT P6SM BKN250
     FM211800 20010G20KT P6SM SCT070 SCT250
     FM220300 20003KT P6SM BKN120=



000
FTUS41 KGYX 210900 AAA
TAFCON
TAF AMD
KCON 210900Z 2109/2206 VRB03KT P6SM SCT250
     FM211500 24005KT P6SM BKN250
     FM211800 20010G20KT P6SM SCT070 SCT250
     FM220300 20003KT P6SM BKN120=



000
FTUS41 KGYX 210900 AAA
TAFPWM
TAF AMD
KPWM 210900Z 2109/2206 VRB03KT P6SM BKN200
     FM211500 22008KT P6SM SCT120 BKN250
     FM211900 20010G20KT P6SM SCT070 SCT250
     FM220100 VRB03KT P6SM BKN120=



000
FTUS41 KGYX 210900 AAA
TAFPSM
TAF AMD
KPSM 210900Z 2109/2206 27005KT P6SM SCT250
     FM211400 24005KT P6SM BKN250
     FM211800 20010G20KT P6SM SCT070 SCT250
     FM220300 20003KT P6SM BKN120=



000
FTUS41 KGYX 210900 AAA
TAFLEB
TAF AMD
KLEB 210900Z 2109/2206 00000KT P6SM SKC
     FM211600 22008KT P6SM SCT120 BKN250
     FM220300 VRB03KT P6SM BKN120=



000
FTUS41 KGYX 210900 AAA
TAFAUG
TAF AMD
KAUG 210900Z 2109/2206 28005KT P6SM SKC
     FM211400 24005KT P6SM SCT120 BKN250
     FM211800 20010G20KT P6SM SCT070 SCT250
     FM220300 17003KT P6SM BKN120=



000
FTUS41 KGYX 210900 AAA
TAFLEB
TAF AMD
KLEB 210900Z 2109/2206 00000KT P6SM SKC
     FM211600 22008KT P6SM SCT120 BKN250
     FM220300 VRB03KT P6SM BKN120=



000
FTUS41 KGYX 210900 AAA
TAFAUG
TAF AMD
KAUG 210900Z 2109/2206 28005KT P6SM SKC
     FM211400 24005KT P6SM SCT120 BKN250
     FM211800 20010G20KT P6SM SCT070 SCT250
     FM220300 17003KT P6SM BKN120=



000
FTUS41 KGYX 210900 AAA
TAFPWM
TAF AMD
KPWM 210900Z 2109/2206 VRB03KT P6SM BKN200
     FM211500 22008KT P6SM SCT120 BKN250
     FM211900 20010G20KT P6SM SCT070 SCT250
     FM220100 VRB03KT P6SM BKN120=



000
FTUS41 KGYX 210900 AAA
TAFCON
TAF AMD
KCON 210900Z 2109/2206 VRB03KT P6SM SCT250
     FM211500 24005KT P6SM BKN250
     FM211800 20010G20KT P6SM SCT070 SCT250
     FM220300 20003KT P6SM BKN120=



000
FTUS41 KGYX 210531
TAFAUG
TAF
KAUG 210531Z 2106/2206 28005KT P6SM SKC
     FM211400 24005KT P6SM SCT120 BKN250
     FM211800 20010G20KT P6SM SCT070 SCT250
     FM220300 17003KT P6SM BKN120=



000
FTUS41 KGYX 210531
TAFLEB
TAF
KLEB 210531Z 2106/2206 00000KT P6SM SKC
     FM211600 22008KT P6SM SCT120 BKN250
     FM220300 VRB03KT P6SM BKN120=



000
FTUS41 KGYX 210531
TAFPSM
TAF
KPSM 210531Z 2106/2206 27005KT P6SM SCT250
     FM211400 24005KT P6SM BKN250
     FM211800 20010G20KT P6SM SCT070 SCT250
     FM220300 20003KT P6SM BKN120=



000
FTUS41 KGYX 210531
TAFCON
TAF
KCON 210531Z 2106/2206 27005KT P6SM SCT250
     FM211500 24005KT P6SM BKN250
     FM211800 20010G20KT P6SM SCT070 SCT250
     FM220300 20003KT P6SM BKN120=



000
FTUS41 KGYX 210531
TAFPWM
TAF
KPWM 210531Z 2106/2206 VRB03KT P6SM SKC
     FM211500 22008KT P6SM SCT120 BKN250
     FM211900 20010G20KT P6SM SCT070 SCT250
     FM220100 VRB03KT P6SM BKN120=



000
FTUS41 KGYX 202320
TAFCON
TAF
KCON 202320Z 2100/2124 30005KT P6SM SCT250
     FM211500 24005KT P6SM SCT120 BKN250=



000
FTUS41 KGYX 202320
TAFPWM
TAF
KPWM 202320Z 2100/2124 31008KT P6SM SKC
     FM210600 VRB03KT P6SM SKC
     FM211500 22008KT P6SM SCT120 BKN250
     FM211800 18010G20KT P6SM SCT100 BKN250=



000
FTUS41 KGYX 202320
TAFLEB
TAF
KLEB 202320Z 2100/2124 35010KT P6SM SKC
     FM210100 VRB03KT P6SM SKC
     FM211500 22004KT P6SM SCT120 BKN250=



000
FTUS41 KGYX 202320
TAFPSM
TAF
KPSM 202320Z 2100/2124 32010G20KT P6SM SKC
     FM210100 30005KT P6SM SCT250
     FM211400 24005KT P6SM SCT120 BKN250=



000
FTUS41 KGYX 202320
TAFAUG
TAF
KAUG 202320Z 2100/2124 30010G20KT P6SM SKC
     FM210100 28005KT P6SM SKC
     FM211400 24005KT P6SM SCT120 BKN250=



000
FTUS41 KGYX 202320
TAFPWM
TAF
KPWM 202320Z 2100/2124 31008KT P6SM SKC
     FM210600 VRB03KT P6SM SKC
     FM211500 22008KT P6SM SCT120 BKN250
     FM211800 18010G20KT P6SM SCT100 BKN250=



000
FTUS41 KGYX 202320
TAFCON
TAF
KCON 202320Z 2100/2124 30005KT P6SM SCT250
     FM211500 24005KT P6SM SCT120 BKN250=



000
FTUS41 KGYX 202320
TAFPSM
TAF
KPSM 202320Z 2100/2124 32010G20KT P6SM SKC
     FM210100 30005KT P6SM SCT250
     FM211400 24005KT P6SM SCT120 BKN250=



000
FTUS41 KGYX 202320
TAFLEB
TAF
KLEB 202320Z 2100/2124 35010KT P6SM SKC
     FM210100 VRB03KT P6SM SKC
     FM211500 22004KT P6SM SCT120 BKN250=



000
FTUS41 KGYX 202320
TAFAUG
TAF
KAUG 202320Z 2100/2124 30010G20KT P6SM SKC
     FM210100 28005KT P6SM SKC
     FM211400 24005KT P6SM SCT120 BKN250=



000
FTUS41 KGYX 201723
TAFCON
TAF
KCON 201723Z 2018/2118 30014G21KT P6SM BKN045
     FM210000 30005KT P6SM SKC
     FM211500 26005KT P6SM SCT120=



000
FTUS41 KGYX 201723
TAFAUG
TAF
KAUG 201723Z 2018/2118 30015G25KT P6SM BKN050
     FM210000 28005KT P6SM SKC
     FM211400 24005KT P6SM SCT120=



000
FTUS41 KGYX 201723
TAFPSM
TAF
KPSM 201723Z 2018/2118 29014G24KT P6SM BKN045
     FM210000 29008KT P6SM SKC
     FM211400 24005KT P6SM SCT120=



000
FTUS41 KGYX 201723
TAFPWM
TAF
KPWM 201723Z 2018/2118 27013G20KT P6SM BKN045
     FM202300 31008KT P6SM SKC
     FM210600 VRB03KT P6SM SKC
     FM211500 22008KT P6SM SCT120=



000
FTUS41 KGYX 201723
TAFLEB
TAF
KLEB 201723Z 2018/2118 32010G20KT P6SM OVC035
     FM210000 VRB03KT P6SM SKC=



000
FTUS41 KGYX 201723
TAFPWM
TAF
KPWM 201723Z 2018/2118 27013G20KT P6SM BKN045
     FM202300 31008KT P6SM SKC
     FM210600 VRB03KT P6SM SKC
     FM211500 22008KT P6SM SCT120=



000
FTUS41 KGYX 201723
TAFLEB
TAF
KLEB 201723Z 2018/2118 32010G20KT P6SM OVC035
     FM210000 VRB03KT P6SM SKC=



000
FTUS41 KGYX 201723
TAFAUG
TAF
KAUG 201723Z 2018/2118 30015G25KT P6SM BKN050
     FM210000 28005KT P6SM SKC
     FM211400 24005KT P6SM SCT120=



000
FTUS41 KGYX 201723
TAFPSM
TAF
KPSM 201723Z 2018/2118 29014G24KT P6SM BKN045
     FM210000 29008KT P6SM SKC
     FM211400 24005KT P6SM SCT120=



000
FTUS41 KGYX 201723
TAFCON
TAF
KCON 201723Z 2018/2118 30014G21KT P6SM BKN045
     FM210000 30005KT P6SM SKC
     FM211500 26005KT P6SM SCT120=



000
FTUS41 KGYX 201502 AAA
TAFAUG
TAF AMD
KAUG 201502Z 2015/2112 30015G25KT P6SM BKN045
     FM210000 29005KT P6SM SKC=



000
FTUS41 KGYX 201417 AAB
TAFPWM
TAF AMD
KPWM 201417Z 2014/2112 29015G25KT P6SM SCT045
     FM210000 31008KT P6SM SKC
     FM210600 VRB03KT P6SM SKC=



000
FTUS41 KGYX 201417 AAB
TAFPSM
TAF AMD
KPSM 201417Z 2014/2112 29015G25KT P6SM SCT050
     FM210000 30008KT P6SM SKC
     FM210300 24003KT P6SM SKC=



000
FTUS41 KGYX 201301 AAA
TAFPSM
TAF AMD
KPSM 201301Z 2013/2112 30015G25KT P6SM SCT050
     FM210000 30008KT P6SM SKC
     FM210300 24003KT P6SM SKC=



000
FTUS41 KGYX 201300 AAA
TAFPWM
TAF AMD
KPWM 201300Z 2013/2112 32010KT P6SM SCT050
     FM201400 30015G25KT P6SM SCT050
     FM210000 31008KT P6SM SKC
     FM210600 VRB03KT P6SM SKC=



000
FTUS41 KGYX 201127
TAFPSM
TAF
KPSM 201127Z 2012/2112 28008KT P6SM SCT250
     FM201400 28015G25KT P6SM SCT050
     FM210000 30008KT P6SM SKC
     FM210300 24003KT P6SM SKC=



000
FTUS41 KGYX 201127
TAFAUG
TAF
KAUG 201127Z 2012/2112 30008KT P6SM SCT250
     FM201300 28015G25KT P6SM BKN050
     FM210000 29005KT P6SM SKC=



000
FTUS41 KGYX 201127
TAFPWM
TAF
KPWM 201127Z 2012/2112 27008KT P6SM SCT250
     FM201400 30015G25KT P6SM SCT050
     FM210000 31008KT P6SM SKC
     FM210600 VRB03KT P6SM SKC=



000
FTUS41 KGYX 201127
TAFCON
TAF
KCON 201127Z 2012/2112 29010KT P6SM SCT250
     FM201400 30018G28KT P6SM SCT050
     FM210000 30005KT P6SM SKC=



000
FTUS41 KGYX 201127
TAFLEB
TAF
KLEB 201127Z 2012/2112 30015G25KT P6SM OVC035
     FM210000 VRB03KT P6SM SKC=



000
FTUS41 KGYX 201127
TAFPSM
TAF
KPSM 201127Z 2012/2112 28008KT P6SM SCT250
     FM201400 28015G25KT P6SM SCT050
     FM210000 30008KT P6SM SKC
     FM210300 24003KT P6SM SKC=



000
FTUS41 KGYX 201127
TAFAUG
TAF
KAUG 201127Z 2012/2112 30008KT P6SM SCT250
     FM201300 28015G25KT P6SM BKN050
     FM210000 29005KT P6SM SKC=



000
FTUS41 KGYX 201127
TAFLEB
TAF
KLEB 201127Z 2012/2112 30015G25KT P6SM OVC035
     FM210000 VRB03KT P6SM SKC=



000
FTUS41 KGYX 200905 AAA
TAFCON
TAF AMD
KCON 200905Z 2009/2106 29012G22KT P6SM SKC
     FM201300 30018G28KT P6SM SCT050
     FM210000 30005KT P6SM SKC=



000
FTUS41 KGYX 200905 AAA
TAFPWM
TAF AMD
KPWM 200905Z 2009/2106 27007KT P6SM SCT080
     FM201400 30015G25KT P6SM SCT050 BKN250
     FM210000 31008KT P6SM SKC=



000
FTUS41 KGYX 200905 AAC
TAFAUG
TAF AMD
KAUG 200905Z 2009/2106 30008KT P6SM SCT250
     FM201300 28015G25KT P6SM BKN050
     FM210000 29005KT P6SM SKC=



000
FTUS41 KGYX 200905 AAA
TAFLEB
TAF AMD
KLEB 200905Z 2009/2106 25008KT P6SM OVC050
     FM201400 30015G25KT P6SM OVC050
     FM210000 VRB03KT P6SM SKC=



000
FTUS41 KGYX 200905 AAA
TAFPSM
TAF AMD
KPSM 200905Z 2009/2106 28008KT P6SM SCT070
     FM201400 28015G25KT P6SM SCT050
     FM210000 30008KT P6SM SKC=



000
FTUS41 KGYX 200805 AAB
TAFAUG
TAF AMD
KAUG 200805Z 2008/2106 27008KT P6SM SCT250
     FM201300 28015G25KT P6SM BKN050
     FM210000 29005KT P6SM SKC=



    US Dept of Commerce
    National Oceanic and Atmospheric Administration
    National Weather Service
    1325 East West Highway
    Silver Spring, MD 20910
    Page Author: NWS Internet Services Team
Disclaimer
Information Quality
Credits
Glossary
Privacy Policy
Freedom of Information Act (FOIA)
About Us
Career Opportunities